createdAt,value
2022-09-02T00:02:26.295Z,0.30
2022-09-02T00:04:54.225Z,0.40
2022-09-02T00:07:22.097Z,0.35
2022-09-02T00:09:50.015Z,0.47
2022-09-02T00:12:17.831Z,1.55
2022-09-02T00:14:45.700Z,0.90
2022-09-02T00:17:13.533Z,0.60
2022-09-02T00:19:41.351Z,1.23
2022-09-02T00:22:09.557Z,0.57
2022-09-02T00:24:37.484Z,0.30
2022-09-02T00:27:05.541Z,0.50
2022-09-02T00:29:33.380Z,0.55
2022-09-02T00:32:01.327Z,0.90
2022-09-02T00:34:29.203Z,0.52
2022-09-02T00:36:57.341Z,1.13
2022-09-02T00:39:26.271Z,0.60
2022-09-02T00:41:54.560Z,0.85
2022-09-02T00:44:22.468Z,0.57
2022-09-02T00:46:50.467Z,0.60
2022-09-02T00:49:27.386Z,0.50
2022-09-02T00:52:00.572Z,0.63
2022-09-02T00:54:30.966Z,0.30
2022-09-02T00:57:01.047Z,0.30
2022-09-02T01:00:11.063Z,0.63
2022-09-02T01:02:42.242Z,0.30
2022-09-02T01:05:13.098Z,0.52
2022-09-02T01:07:43.304Z,0.30
2022-09-02T01:10:17.487Z,0.30
2022-09-02T01:12:46.026Z,0.90
2022-09-02T01:15:15.535Z,0.50
2022-09-02T01:17:48.037Z,0.50
2022-09-02T01:20:21.328Z,0.88
2022-09-02T01:22:54.981Z,0.40
2022-09-02T01:25:27.098Z,0.30
2022-09-02T01:28:07.598Z,0.40
2022-09-02T01:30:37.353Z,0.30
2022-09-02T01:33:05.670Z,0.35
2022-09-02T01:35:33.552Z,0.40
2022-09-02T01:38:02.610Z,0.30
2022-09-02T01:40:31.794Z,0.50
2022-09-02T01:43:12.129Z,0.60
2022-09-02T01:45:42.878Z,0.85
2022-09-02T01:49:28.775Z,0.45
2022-09-02T01:52:00.350Z,0.55
2022-09-02T01:54:28.209Z,1.13
2022-09-02T01:56:56.047Z,0.50
2022-09-02T01:59:49.615Z,0.45
2022-09-02T02:04:48.774Z,1.65
2022-09-02T02:07:19.561Z,0.30
2022-09-02T02:09:48.629Z,0.60
2022-09-02T02:12:18.647Z,0.85
2022-09-02T02:14:46.733Z,0.95
2022-09-02T02:17:14.628Z,0.45
2022-09-02T02:19:42.665Z,0.50
2022-09-02T02:22:10.829Z,1.35
2022-09-02T02:24:39.314Z,0.38
2022-09-02T02:27:07.347Z,0.30
2022-09-02T02:29:36.043Z,0.60
2022-09-02T02:32:04.117Z,0.50
2022-09-02T02:34:34.167Z,0.65
2022-09-02T02:37:02.098Z,1.00
2022-09-02T02:39:29.888Z,0.30
2022-09-02T02:41:58.593Z,1.10
2022-09-02T02:44:27.807Z,0.40
2022-09-02T02:46:55.886Z,0.40
2022-09-02T02:49:23.917Z,0.50
2022-09-02T02:51:51.761Z,2.05
2022-09-02T02:54:20.817Z,0.85
2022-09-02T02:56:49.479Z,0.40
2022-09-02T02:59:17.273Z,0.60
2022-09-02T03:01:45.218Z,0.45
2022-09-02T03:04:13.414Z,0.82
2022-09-02T03:06:41.224Z,0.30
2022-09-02T03:09:09.280Z,0.20
2022-09-02T03:11:38.453Z,0.30
2022-09-02T03:14:08.106Z,0.20
2022-09-02T03:16:36.506Z,0.52
2022-09-02T03:19:04.798Z,0.60
2022-09-02T03:21:38.762Z,1.13
2022-09-02T03:24:11.072Z,0.32
2022-09-02T03:26:42.505Z,0.40
2022-09-02T03:29:11.541Z,0.45
2022-09-02T03:31:39.613Z,0.65
2022-09-02T03:34:08.113Z,0.70
2022-09-02T03:36:39.325Z,0.30
2022-09-02T03:39:10.014Z,0.40
2022-09-02T03:41:43.724Z,0.35
2022-09-02T03:44:12.819Z,0.40
2022-09-02T03:46:42.871Z,0.43
2022-09-02T03:49:12.257Z,0.35
2022-09-02T03:51:42.078Z,0.20
2022-09-02T03:54:11.136Z,0.45
2022-09-02T03:56:40.502Z,0.55
2022-09-02T03:59:09.655Z,0.40
2022-09-02T04:01:37.744Z,0.45
2022-09-02T04:04:06.476Z,0.30
2022-09-02T04:06:36.247Z,1.23
2022-09-02T04:09:05.340Z,0.30
2022-09-02T04:11:34.623Z,0.50
2022-09-02T04:14:02.585Z,0.63
2022-09-02T04:16:31.320Z,0.30
2022-09-02T04:19:05.490Z,0.30
2022-09-02T04:21:35.376Z,0.32
2022-09-02T04:24:07.891Z,0.50
2022-09-02T04:29:13.283Z,0.40
2022-09-02T04:31:42.924Z,0.45
2022-09-02T04:34:11.968Z,0.30
2022-09-02T04:36:41.797Z,0.30
2022-09-02T04:39:12.846Z,0.30
2022-09-02T04:41:40.944Z,0.43
2022-09-02T04:44:11.511Z,0.45
2022-09-02T04:46:42.794Z,0.73
2022-09-02T04:49:15.305Z,1.02
2022-09-02T04:51:45.011Z,1.08
2022-09-02T04:54:13.003Z,0.30
2022-09-02T04:56:43.742Z,1.33
2022-09-02T04:59:13.197Z,0.50
2022-09-02T05:01:47.257Z,0.50
2022-09-02T05:04:20.241Z,0.50
2022-09-02T05:06:53.209Z,0.40
2022-09-02T05:09:22.120Z,0.75
2022-09-02T05:11:57.749Z,0.50
2022-09-02T05:14:29.502Z,0.55
2022-09-02T05:17:05.310Z,0.60
2022-09-02T05:19:36.853Z,0.80
2022-09-02T05:22:05.067Z,0.50
2022-09-02T05:24:37.474Z,2.10
2022-09-02T05:27:09.513Z,1.60
2022-09-02T05:29:37.766Z,1.90
2022-09-02T05:32:08.227Z,1.42
2022-09-02T05:34:38.985Z,1.80
2022-09-02T05:37:07.726Z,1.77
2022-09-02T05:39:37.002Z,1.60
2022-09-02T05:42:06.855Z,1.80
2022-09-02T05:44:36.776Z,1.90
2022-09-02T05:47:05.828Z,2.00
2022-09-02T05:49:34.091Z,2.00
2022-09-02T05:52:10.285Z,2.10
2022-09-02T05:54:45.178Z,1.90
2022-09-02T05:57:17.518Z,2.05
2022-09-02T06:00:17.930Z,2.53
2022-09-02T06:02:55.701Z,3.03
2022-09-02T06:05:35.880Z,2.20
2022-09-02T06:08:13.239Z,1.77
2022-09-02T06:10:43.391Z,1.80
2022-09-02T06:13:15.842Z,2.10
2022-09-02T06:15:44.594Z,1.80
2022-09-02T06:18:13.638Z,1.95
2022-09-02T06:20:46.877Z,1.75
2022-09-02T06:23:16.968Z,1.63
2022-09-02T06:25:47.872Z,1.50
2022-09-02T06:28:16.612Z,1.70
2022-09-02T06:30:48.783Z,2.42
2022-09-02T06:33:19.867Z,1.70
2022-09-02T06:35:49.483Z,1.60
2022-09-02T06:38:20.520Z,1.80
2022-09-02T06:40:55.115Z,1.48
2022-09-02T06:43:42.445Z,1.35
2022-09-02T06:46:24.320Z,1.85
2022-09-02T06:48:55.412Z,1.85
2022-09-02T06:51:31.556Z,1.70
2022-09-02T06:54:01.908Z,1.75
2022-09-02T06:56:34.615Z,1.35
2022-09-02T06:59:03.724Z,1.98
2022-09-02T07:01:43.880Z,1.83
2022-09-02T07:04:32.846Z,2.03
2022-09-02T07:07:00.861Z,2.08
2022-09-02T07:09:32.553Z,1.67
2022-09-02T07:12:09.043Z,1.70
2022-09-02T07:14:43.931Z,1.80
2022-09-02T07:17:21.906Z,2.58
2022-09-02T07:19:56.048Z,1.95
2022-09-02T07:22:24.257Z,1.85
2022-09-02T07:24:52.857Z,1.83
2022-09-02T07:27:21.814Z,2.28
2022-09-02T07:29:51.206Z,2.20
2022-09-02T07:32:19.982Z,1.73
2022-09-02T07:34:48.989Z,1.60
2022-09-02T07:37:16.930Z,1.40
2022-09-02T07:39:45.864Z,1.50
2022-09-02T07:42:17.117Z,1.70
2022-09-02T07:44:45.569Z,1.80
2022-09-02T07:47:14.165Z,1.60
2022-09-02T07:52:34.091Z,1.70
2022-09-02T07:55:02.589Z,1.55
2022-09-02T07:57:31.935Z,1.55
2022-09-02T08:00:00.638Z,1.42
2022-09-02T08:02:28.680Z,1.77
2022-09-02T08:04:56.683Z,1.65
2022-09-02T08:07:25.127Z,1.48
2022-09-02T08:09:54.163Z,1.30
2022-09-02T08:12:22.614Z,1.55
2022-09-02T08:14:50.997Z,1.48
2022-09-02T08:17:18.893Z,1.25
2022-09-02T08:19:46.966Z,1.52
2022-09-02T08:22:15.376Z,1.35
2022-09-02T08:24:43.307Z,1.67
2022-09-02T08:27:11.697Z,1.67
2022-09-02T08:29:39.917Z,1.80
2022-09-02T08:32:07.785Z,1.50
2022-09-02T08:34:35.599Z,1.60
2022-09-02T08:37:03.468Z,1.33
2022-09-02T08:39:31.360Z,1.40
2022-09-02T08:42:33.023Z,1.30
2022-09-02T08:45:11.140Z,1.70
2022-09-02T08:48:29.658Z,1.50
2022-09-02T08:51:04.413Z,1.80
2022-09-02T08:53:39.756Z,1.60
2022-09-02T08:56:11.823Z,1.67
2022-09-02T08:58:44.022Z,1.95
2022-09-02T09:01:31.905Z,1.52
2022-09-02T09:04:08.563Z,1.58
2022-09-02T09:06:45.046Z,1.40
2022-09-02T09:09:15.782Z,1.40
2022-09-02T09:11:53.390Z,1.30
2022-09-02T09:14:44.222Z,1.10
2022-09-02T09:17:28.011Z,1.40
2022-09-02T09:20:00.650Z,1.65
2022-09-02T09:22:39.393Z,1.58
2022-09-02T09:25:14.195Z,1.38
2022-09-02T09:27:42.661Z,1.45
2022-09-02T09:30:15.030Z,1.45
2022-09-02T09:33:00.299Z,1.40
2022-09-02T09:35:46.568Z,1.25
2022-09-02T09:38:14.782Z,1.60
2022-09-02T09:40:42.740Z,1.52
2022-09-02T09:43:14.566Z,2.53
2022-09-02T09:45:51.617Z,2.35
2022-09-02T09:48:29.869Z,2.40
2022-09-02T09:50:57.652Z,2.05
2022-09-02T09:53:34.749Z,2.25
2022-09-02T09:56:07.688Z,1.65
2022-09-02T09:58:41.550Z,1.90
2022-09-02T10:01:15.776Z,1.90
2022-09-02T10:03:52.539Z,1.75
2022-09-02T10:06:42.121Z,1.80
2022-09-02T10:09:15.457Z,2.13
2022-09-02T10:12:05.199Z,2.03
2022-09-02T10:14:46.067Z,1.30
2022-09-02T10:17:26.785Z,1.50
2022-09-02T10:20:38.944Z,1.60
2022-09-02T10:23:34.946Z,1.58
2022-09-02T10:26:31.240Z,1.30
2022-09-02T10:29:28.240Z,1.45
2022-09-02T10:31:59.122Z,1.60
2022-09-02T10:34:45.906Z,1.52
2022-09-02T10:37:42.108Z,1.83
2022-09-02T10:40:19.720Z,1.40
2022-09-02T10:43:04.537Z,1.35
2022-09-02T10:45:47.945Z,1.48
2022-09-02T10:48:42.729Z,1.67
2022-09-02T10:51:29.033Z,2.03
2022-09-02T10:54:09.723Z,1.60
2022-09-02T10:56:54.576Z,1.40
2022-09-02T10:59:32.163Z,1.70
2022-09-02T11:02:14.471Z,1.30
2022-09-02T11:05:07.492Z,1.40
2022-09-02T11:10:19.971Z,1.58
2022-09-02T11:12:57.205Z,1.38
2022-09-02T11:15:47.558Z,1.52
2022-09-02T11:18:42.934Z,1.35
2022-09-02T11:21:26.035Z,1.60
2022-09-02T11:24:20.295Z,1.40
2022-09-02T11:27:32.128Z,1.55
2022-09-02T11:30:21.087Z,1.50
2022-09-02T11:33:17.852Z,1.40
2022-09-02T11:35:46.469Z,1.40
2022-09-02T11:38:38.750Z,1.55
2022-09-02T11:41:38.191Z,1.60
2022-09-02T11:44:35.779Z,1.60
2022-09-02T11:47:26.441Z,1.60
2022-09-02T11:50:16.968Z,1.63
2022-09-02T11:53:18.478Z,1.65
2022-09-02T11:56:12.220Z,1.40
2022-09-02T11:58:46.435Z,1.90
2022-09-02T12:01:43.861Z,1.90
2022-09-02T12:04:58.776Z,1.50
2022-09-02T12:07:08.627Z,1.48
2022-09-02T12:09:56.944Z,1.45
2022-09-02T12:12:36.756Z,1.60
2022-09-02T12:15:05.518Z,1.40
2022-09-02T12:17:45.481Z,1.90
2022-09-02T12:20:36.732Z,1.50
2022-09-02T12:23:06.904Z,1.73
2022-09-02T12:25:48.409Z,1.70
2022-09-02T12:28:26.631Z,1.48
2022-09-02T12:31:01.554Z,1.63
2022-09-02T12:33:33.776Z,1.33
2022-09-02T12:36:04.884Z,1.25
2022-09-02T12:38:34.231Z,1.80
2022-09-02T12:41:05.308Z,1.70
2022-09-02T12:46:22.992Z,1.67
2022-09-02T12:49:17.958Z,2.50
2022-09-02T12:51:51.730Z,1.90
2022-09-02T12:54:47.869Z,1.50
2022-09-02T12:57:19.464Z,1.48
2022-09-02T12:59:48.261Z,1.75
2022-09-02T13:02:43.528Z,1.80
2022-09-02T13:05:31.181Z,1.55
2022-09-02T13:08:17.789Z,1.50
2022-09-02T13:11:09.366Z,1.70
2022-09-02T13:14:07.049Z,2.00
2022-09-02T13:16:39.993Z,1.60
2022-09-02T13:19:37.436Z,1.55
2022-09-02T13:22:21.234Z,1.60
2022-09-02T13:25:21.249Z,1.45
2022-09-02T13:28:07.703Z,1.52
2022-09-02T13:31:04.076Z,1.83
2022-09-02T13:33:32.547Z,2.20
2022-09-02T13:36:00.644Z,1.55
2022-09-02T13:38:30.049Z,2.60
2022-09-02T13:40:57.996Z,1.80
2022-09-02T13:43:27.242Z,1.60
2022-09-02T13:46:01.108Z,1.90
2022-09-02T13:48:33.678Z,2.03
2022-09-02T13:51:13.547Z,1.67
2022-09-02T13:53:59.597Z,1.90
2022-09-02T13:56:33.559Z,1.75
2022-09-02T13:59:01.646Z,1.60
2022-09-02T14:02:19.277Z,1.85
2022-09-02T14:04:49.830Z,1.90
2022-09-02T14:07:23.877Z,1.90
2022-09-02T14:09:52.927Z,1.63
2022-09-02T14:12:21.211Z,2.25
2022-09-02T14:14:49.405Z,2.00
2022-09-02T14:17:22.327Z,2.45
2022-09-02T14:19:51.306Z,2.10
2022-09-02T14:22:29.895Z,1.80
2022-09-02T14:24:57.870Z,2.08
2022-09-02T14:27:26.153Z,1.73
2022-09-02T14:29:57.577Z,1.88
2022-09-02T14:32:28.066Z,1.67
2022-09-02T14:35:17.574Z,1.63
2022-09-02T14:37:56.147Z,1.70
2022-09-02T14:40:38.501Z,1.92
2022-09-02T14:43:14.286Z,1.88
2022-09-02T14:45:47.823Z,2.00
2022-09-02T14:48:25.008Z,1.98
2022-09-02T14:51:04.212Z,1.60
2022-09-02T14:53:32.599Z,1.48
2022-09-02T14:56:00.949Z,1.88
2022-09-02T14:58:30.970Z,1.60
2022-09-02T15:01:00.651Z,1.60
2022-09-02T15:03:30.529Z,1.95
2022-09-02T15:05:58.488Z,2.00
2022-09-02T15:08:26.410Z,1.85
2022-09-02T15:10:58.227Z,1.70
2022-09-02T15:13:28.493Z,2.10
2022-09-02T15:15:57.070Z,1.80
2022-09-02T15:18:25.884Z,2.20
2022-09-02T15:20:54.323Z,2.38
2022-09-02T15:23:24.214Z,1.77
2022-09-02T15:25:54.291Z,2.25
2022-09-02T15:28:22.318Z,2.78
2022-09-02T15:30:58.244Z,1.85
2022-09-02T15:33:27.500Z,3.40
2022-09-02T15:35:55.801Z,2.22
2022-09-02T15:38:23.880Z,2.10
2022-09-02T15:40:51.915Z,1.92
2022-09-02T15:43:21.413Z,2.17
2022-09-02T15:45:49.344Z,1.85
2022-09-02T15:48:17.190Z,2.10
2022-09-02T15:50:46.574Z,2.03
2022-09-02T15:53:16.041Z,2.38
2022-09-02T15:55:44.174Z,2.72
2022-09-02T15:58:12.575Z,2.08
2022-09-02T16:00:41.740Z,2.20
2022-09-02T16:03:12.043Z,2.28
2022-09-02T16:05:43.215Z,2.13
2022-09-02T16:08:11.773Z,2.20
2022-09-02T16:10:40.422Z,2.30
2022-09-02T16:13:08.406Z,2.20
2022-09-02T16:15:36.173Z,2.08
2022-09-02T16:18:04.106Z,1.90
2022-09-02T16:20:31.980Z,2.20
2022-09-02T16:22:59.835Z,2.30
2022-09-02T16:25:27.760Z,2.60
2022-09-02T16:27:56.510Z,2.65
2022-09-02T16:30:25.767Z,2.30
2022-09-02T16:32:54.569Z,2.45
2022-09-02T16:35:22.395Z,2.40
2022-09-02T16:37:50.417Z,3.47
2022-09-02T16:40:21.630Z,3.55
2022-09-02T16:42:49.960Z,2.03
2022-09-02T16:45:17.806Z,2.35
2022-09-02T16:47:45.814Z,1.90
2022-09-02T16:50:13.857Z,1.90
2022-09-02T16:52:41.663Z,2.20
2022-09-02T16:55:10.664Z,1.90
2022-09-02T16:57:38.527Z,2.08
2022-09-02T17:00:07.279Z,1.75
2022-09-02T17:02:35.673Z,2.22
2022-09-02T17:05:03.638Z,1.75
2022-09-02T17:07:31.531Z,1.90
2022-09-02T17:09:59.344Z,1.92
2022-09-02T17:12:27.178Z,1.95
2022-09-02T17:14:54.987Z,1.90
2022-09-02T17:17:22.812Z,1.90
2022-09-02T17:19:50.711Z,2.30
2022-09-02T17:22:18.518Z,2.53
2022-09-02T17:24:48.573Z,3.00
2022-09-02T17:27:19.664Z,3.30
2022-09-02T17:29:49.605Z,3.15
2022-09-02T17:32:21.185Z,3.47
2022-09-02T17:40:40.375Z,3.20
2022-09-02T17:43:15.340Z,6.43
2022-09-02T17:45:43.551Z,3.38
2022-09-02T17:48:34.766Z,3.70
2022-09-02T17:50:59.335Z,3.40
2022-09-02T17:53:27.910Z,3.47
2022-09-02T17:56:21.776Z,3.20
2022-09-02T17:59:13.725Z,3.60
2022-09-02T18:01:53.197Z,3.60
2022-09-02T18:04:53.192Z,3.15
2022-09-02T18:07:35.642Z,3.40
2022-09-02T18:10:03.995Z,3.00
2022-09-02T18:12:33.713Z,3.92
2022-09-02T18:15:03.087Z,3.33
2022-09-02T18:17:45.107Z,3.70
2022-09-02T18:20:22.245Z,3.80
2022-09-02T18:23:09.086Z,3.20
2022-09-02T18:25:48.718Z,3.58
2022-09-02T18:28:45.302Z,4.18
2022-09-02T18:31:21.936Z,3.30
2022-09-02T18:34:01.151Z,3.40
2022-09-02T18:36:52.032Z,3.53
2022-09-02T18:39:27.149Z,3.03
2022-09-02T18:42:00.733Z,2.80
2022-09-02T18:44:40.707Z,3.97
2022-09-02T18:47:46.091Z,2.88
2022-09-02T18:50:55.586Z,3.47
2022-09-02T18:53:28.419Z,4.10
2022-09-02T18:55:58.006Z,5.25
2022-09-02T18:58:36.457Z,3.30
2022-09-02T19:01:35.508Z,4.03
2022-09-02T19:04:03.562Z,3.33
2022-09-02T19:06:36.485Z,3.28
2022-09-02T19:11:35.221Z,3.10
2022-09-02T19:14:09.108Z,3.40
2022-09-02T19:16:38.905Z,3.10
2022-09-02T19:19:08.078Z,3.03
2022-09-02T19:21:59.310Z,3.60
2022-09-02T19:24:58.014Z,3.03
2022-09-02T19:27:33.859Z,3.28
2022-09-02T19:30:13.209Z,3.17
2022-09-02T19:32:45.378Z,3.33
2022-09-02T19:35:19.381Z,4.37
2022-09-02T19:37:51.553Z,3.97
2022-09-02T19:40:24.593Z,3.00
2022-09-02T19:42:55.716Z,3.22
2022-09-02T19:45:23.675Z,4.43
2022-09-02T19:48:08.741Z,3.47
2022-09-02T19:50:45.036Z,3.10
2022-09-02T19:53:30.494Z,3.33
2022-09-02T19:56:01.708Z,3.83
2022-09-02T19:58:29.608Z,3.88
2022-09-02T20:00:59.207Z,3.50
2022-09-02T20:03:28.262Z,3.40
2022-09-02T20:05:56.229Z,3.13
2022-09-02T20:08:31.058Z,3.08
2022-09-02T20:11:01.618Z,3.38
2022-09-02T20:13:30.994Z,2.85
2022-09-02T20:15:58.864Z,3.33
2022-09-02T20:18:26.958Z,3.13
2022-09-02T20:20:57.468Z,3.22
2022-09-02T20:23:27.655Z,3.33
2022-09-02T20:26:10.985Z,4.28
2022-09-02T20:29:25.203Z,3.60
2022-09-02T20:31:59.106Z,4.75
2022-09-02T20:34:35.972Z,3.60
2022-09-02T20:37:30.524Z,3.70
2022-09-02T20:40:34.382Z,3.03
2022-09-02T20:46:01.967Z,3.80
2022-09-02T20:48:52.783Z,3.25
2022-09-02T20:51:37.036Z,3.22
2022-09-02T20:54:23.073Z,3.53
2022-09-02T20:57:15.323Z,3.85
2022-09-02T21:00:08.909Z,4.13
2022-09-02T21:05:22.450Z,3.92
2022-09-02T21:08:05.672Z,3.53
2022-09-02T21:10:43.175Z,3.55
2022-09-02T21:13:19.885Z,5.05
2022-09-02T21:15:56.373Z,3.30
2022-09-02T21:18:35.481Z,3.90
2022-09-02T21:21:10.618Z,3.50
2022-09-02T21:24:02.965Z,3.60
2022-09-02T21:26:56.724Z,3.30
2022-09-02T21:29:38.355Z,4.28
2022-09-02T21:32:40.311Z,3.92
2022-09-02T21:35:16.196Z,3.78
2022-09-02T21:37:45.533Z,4.30
2022-09-02T21:40:17.960Z,3.70
2022-09-02T21:43:00.423Z,4.43
2022-09-02T21:45:46.660Z,3.60
2022-09-02T21:48:41.131Z,4.15
2022-09-02T21:51:27.956Z,3.58
2022-09-02T21:54:17.009Z,3.95
2022-09-02T21:57:14.354Z,3.60
2022-09-02T22:00:07.860Z,4.68
2022-09-02T22:03:10.553Z,3.88
2022-09-02T22:05:50.578Z,4.07
2022-09-02T22:08:40.554Z,3.90
2022-09-02T22:11:27.341Z,4.53
2022-09-02T22:13:58.739Z,4.25
2022-09-02T22:16:46.078Z,4.18
2022-09-02T22:19:14.710Z,4.35
2022-09-02T22:21:51.373Z,4.22
2022-09-02T22:24:29.773Z,4.32
2022-09-02T22:26:58.539Z,3.33
2022-09-02T22:29:36.670Z,3.95
2022-09-02T22:32:08.760Z,4.18
2022-09-02T22:34:43.694Z,4.20
2022-09-02T22:37:18.708Z,4.00
2022-09-02T22:39:58.159Z,4.13
2022-09-02T22:42:36.064Z,4.28
2022-09-02T22:45:30.239Z,3.65
2022-09-02T22:48:48.113Z,4.60
2022-09-02T22:52:06.165Z,4.10
2022-09-02T22:54:34.217Z,4.00
2022-09-02T22:57:12.026Z,3.78
2022-09-02T23:00:01.332Z,4.07
2022-09-02T23:02:37.182Z,3.65
2022-09-02T23:05:49.336Z,3.50
2022-09-02T23:08:20.574Z,3.58
2022-09-02T23:11:25.183Z,4.03
2022-09-02T23:14:09.142Z,4.03
2022-09-02T23:16:58.907Z,3.10
2022-09-02T23:19:56.938Z,3.90
2022-09-02T23:22:45.697Z,4.32
2022-09-02T23:25:40.230Z,4.50
2022-09-02T23:28:14.885Z,3.90
2022-09-02T23:31:08.618Z,5.05
2022-09-02T23:34:30.603Z,3.85
2022-09-02T23:37:43.576Z,3.45
2022-09-02T23:40:26.257Z,3.05
2022-09-02T23:42:54.359Z,3.30
2022-09-02T23:45:33.787Z,3.63
2022-09-02T23:48:30.038Z,3.20
2022-09-02T23:51:05.520Z,3.20
2022-09-02T23:53:50.644Z,3.22
2022-09-02T23:56:33.673Z,2.95
2022-09-02T23:59:11.723Z,3.00
